createdAt,value
2019-05-30T00:00:19.950Z,65.95
2019-05-30T00:01:19.816Z,65.81
2019-05-30T00:02:19.821Z,65.71
2019-05-30T00:03:19.818Z,65.81
2019-05-30T00:04:19.780Z,65.61
2019-05-30T00:05:19.780Z,65.71
2019-05-30T00:06:19.837Z,65.61
2019-05-30T00:07:19.749Z,65.41
2019-05-30T00:08:19.736Z,65.41
2019-05-30T00:09:19.729Z,65.51
2019-05-30T00:10:19.718Z,65.31
2019-05-30T00:11:19.712Z,65.20
2019-05-30T00:12:19.747Z,65.20
2019-05-30T00:13:19.689Z,65.10
2019-05-30T00:14:19.677Z,65.10
2019-05-30T00:15:19.666Z,65.20
2019-05-30T00:16:19.651Z,65.10
2019-05-30T00:17:19.639Z,65.20
2019-05-30T00:18:19.745Z,65.00
2019-05-30T00:19:19.624Z,65.20
2019-05-30T00:20:19.609Z,65.10
2019-05-30T00:21:19.598Z,65.20
2019-05-30T00:22:19.587Z,65.10
2019-05-30T00:23:19.592Z,65.00
2019-05-30T00:24:19.627Z,65.10
2019-05-30T00:25:19.558Z,65.20
2019-05-30T00:26:19.548Z,65.44
2019-05-30T00:27:19.537Z,65.54
2019-05-30T00:28:19.529Z,65.44
2019-05-30T00:29:19.519Z,65.41
2019-05-30T00:30:24.357Z,65.20
2019-05-30T00:31:20.500Z,65.51
2019-05-30T00:32:19.489Z,65.23
2019-05-30T00:33:19.487Z,65.44
2019-05-30T00:34:19.468Z,65.44
2019-05-30T00:35:19.459Z,65.54
2019-05-30T00:36:19.479Z,65.54
2019-05-30T00:37:19.436Z,65.64
2019-05-30T00:38:19.417Z,65.54
2019-05-30T00:39:19.408Z,65.74
2019-05-30T00:40:19.405Z,65.74
2019-05-30T00:41:19.397Z,65.44
2019-05-30T00:42:19.919Z,65.44
2019-05-30T00:43:19.367Z,65.23
2019-05-30T00:44:19.360Z,65.23
2019-05-30T00:45:21.244Z,65.44
2019-05-30T00:46:19.337Z,65.41
2019-05-30T00:47:19.327Z,65.34
2019-05-30T00:48:19.358Z,65.74
2019-05-30T00:49:20.176Z,65.64
2019-05-30T00:50:19.297Z,65.74
2019-05-30T00:51:19.288Z,65.84
2019-05-30T00:52:19.285Z,66.05
2019-05-30T00:53:19.266Z,65.84
2019-05-30T00:54:19.327Z,65.95
2019-05-30T00:55:19.246Z,66.15
2019-05-30T00:56:20.088Z,66.15
2019-05-30T00:57:19.217Z,66.15
2019-05-30T00:58:19.217Z,66.15
2019-05-30T00:59:19.218Z,66.36
2019-05-30T01:00:19.263Z,66.25
2019-05-30T01:01:19.176Z,66.36
2019-05-30T01:02:19.206Z,66.36
2019-05-30T01:03:19.158Z,66.36
2019-05-30T01:04:19.656Z,66.39
2019-05-30T01:05:19.256Z,66.49
2019-05-30T01:06:19.227Z,66.49
2019-05-30T01:07:19.115Z,66.59
2019-05-30T01:08:20.004Z,66.69
2019-05-30T01:09:19.096Z,66.59
2019-05-30T01:10:20.036Z,66.59
2019-05-30T01:11:19.077Z,66.69
2019-05-30T01:12:19.175Z,66.69
2019-05-30T01:13:19.053Z,66.69
2019-05-30T01:14:19.042Z,66.80
2019-05-30T01:15:19.037Z,66.59
2019-05-30T01:16:19.040Z,66.59
2019-05-30T01:17:19.007Z,66.49
2019-05-30T01:18:19.616Z,66.49
2019-05-30T01:19:18.984Z,66.49
2019-05-30T01:20:18.975Z,66.49
2019-05-30T01:21:19.675Z,66.69
2019-05-30T01:22:18.961Z,66.39
2019-05-30T01:23:18.944Z,66.59
2019-05-30T01:24:18.975Z,66.69
2019-05-30T01:25:18.925Z,66.69
2019-05-30T01:26:18.914Z,66.69
2019-05-30T01:27:18.904Z,66.80
2019-05-30T01:28:18.903Z,66.69
2019-05-30T01:29:18.883Z,66.80
2019-05-30T01:30:19.674Z,66.80
2019-05-30T01:31:18.893Z,66.69
2019-05-30T01:32:18.844Z,66.69
2019-05-30T01:33:18.861Z,66.59
2019-05-30T01:34:18.823Z,66.49
2019-05-30T01:35:18.814Z,66.90
2019-05-30T01:36:18.878Z,66.90
2019-05-30T01:37:18.794Z,66.80
2019-05-30T01:38:18.783Z,66.80
2019-05-30T01:39:20.088Z,66.80
2019-05-30T01:40:18.764Z,66.69
2019-05-30T01:41:18.753Z,67.00
2019-05-30T01:42:18.780Z,66.93
2019-05-30T01:43:18.733Z,67.24
2019-05-30T01:44:18.722Z,67.34
2019-05-30T01:45:18.713Z,67.24
2019-05-30T01:46:18.703Z,67.34
2019-05-30T01:47:18.692Z,67.34
2019-05-30T01:48:18.724Z,67.24
2019-05-30T01:49:18.672Z,67.34
2019-05-30T01:50:18.659Z,67.54
2019-05-30T01:51:18.651Z,67.44
2019-05-30T01:52:18.636Z,67.65
2019-05-30T01:53:18.623Z,67.54
2019-05-30T01:54:18.703Z,67.34
2019-05-30T01:55:18.602Z,67.13
2019-05-30T01:56:18.592Z,67.44
2019-05-30T01:57:18.585Z,67.65
2019-05-30T01:58:18.591Z,67.65
2019-05-30T01:59:18.573Z,67.65
2019-05-30T02:02:10.432Z,67.88
2019-05-30T02:03:09.908Z,68.05
2019-05-30T02:04:09.852Z,67.85
2019-05-30T02:05:09.821Z,68.05
2019-05-30T02:06:09.812Z,68.05
2019-05-30T02:07:09.813Z,68.16
2019-05-30T02:08:10.361Z,67.95
2019-05-30T02:09:10.762Z,68.16
2019-05-30T02:10:10.186Z,68.16
2019-05-30T02:11:09.773Z,68.16
2019-05-30T02:12:09.752Z,68.16
2019-05-30T02:13:10.021Z,68.16
2019-05-30T02:14:10.011Z,68.26
2019-05-30T02:15:10.247Z,68.39
2019-05-30T02:16:10.013Z,68.60
2019-05-30T02:17:10.083Z,68.80
2019-05-30T02:18:10.153Z,68.49
2019-05-30T02:19:10.574Z,68.70
2019-05-30T02:20:10.408Z,68.80
2019-05-30T02:21:10.033Z,68.90
2019-05-30T02:22:10.121Z,68.46
2019-05-30T02:23:11.492Z,68.39
2019-05-30T02:24:12.035Z,68.70
2019-05-30T02:25:10.388Z,68.90
2019-05-30T02:26:10.578Z,68.80
2019-05-30T02:27:10.360Z,68.70
2019-05-30T02:28:10.376Z,68.80
2019-05-30T02:29:10.479Z,69.01
2019-05-30T02:30:12.381Z,69.11
2019-05-30T02:31:12.241Z,69.11
2019-05-30T02:32:11.032Z,69.01
2019-05-30T02:33:12.281Z,69.01
2019-05-30T02:34:12.072Z,69.21
2019-05-30T02:35:12.122Z,69.11
2019-05-30T02:36:11.008Z,69.31
2019-05-30T02:37:12.667Z,69.42
2019-05-30T02:38:10.012Z,69.42
2019-05-30T02:39:11.358Z,69.31
2019-05-30T02:40:13.885Z,69.21
2019-05-30T02:41:12.557Z,69.21
2019-05-30T02:42:09.755Z,69.31
2019-05-30T02:43:10.403Z,69.31
2019-05-30T02:44:09.865Z,69.42
2019-05-30T02:45:11.834Z,69.52
2019-05-30T02:46:10.609Z,69.62
2019-05-30T02:47:09.642Z,69.72
2019-05-30T02:48:09.977Z,69.72
2019-05-30T02:49:13.059Z,69.72
2019-05-30T02:50:11.591Z,69.93
2019-05-30T02:51:10.764Z,70.03
2019-05-30T02:52:10.806Z,70.03
2019-05-30T02:53:10.972Z,70.23
2019-05-30T02:54:10.971Z,70.13
2019-05-30T02:55:11.446Z,70.03
2019-05-30T02:56:10.213Z,70.03
2019-05-30T02:57:10.307Z,70.03
2019-05-30T02:58:10.509Z,70.13
2019-05-30T02:59:11.584Z,70.23
2019-05-30T03:00:15.382Z,70.23
2019-05-30T03:01:12.003Z,70.23
2019-05-30T03:02:13.964Z,70.43
2019-05-30T03:03:13.918Z,70.34
2019-05-30T03:04:10.962Z,70.54
2019-05-30T03:05:11.922Z,70.64
2019-05-30T03:06:13.134Z,70.75
2019-05-30T03:07:11.327Z,70.64
2019-05-30T03:08:13.913Z,70.75
2019-05-30T03:09:11.114Z,70.75
2019-05-30T03:10:12.211Z,70.95
2019-05-30T03:11:13.546Z,70.95
2019-05-30T03:12:11.402Z,70.95
2019-05-30T03:13:11.191Z,71.05
2019-05-30T03:14:16.059Z,71.15
2019-05-30T03:15:12.466Z,71.15
2019-05-30T03:16:11.808Z,71.25
2019-05-30T03:17:11.416Z,71.15
2019-05-30T03:18:10.310Z,71.25
2019-05-30T03:19:10.936Z,71.46
2019-05-30T03:20:14.792Z,71.46
2019-05-30T03:21:12.824Z,71.56
2019-05-30T03:22:11.498Z,71.36
2019-05-30T03:23:10.438Z,71.46
2019-05-30T03:24:11.288Z,71.56
2019-05-30T03:25:11.102Z,71.66
2019-05-30T03:26:10.889Z,71.87
2019-05-30T03:27:09.966Z,71.97
2019-05-30T03:28:10.835Z,71.97
2019-05-30T03:29:10.032Z,71.87
2019-05-30T03:30:24.316Z,71.87
2019-05-30T03:31:21.685Z,71.73
2019-05-30T03:32:57.519Z,71.94
2019-05-30T03:33:28.160Z,71.94
2019-05-30T03:34:18.223Z,71.94
2019-05-30T03:35:22.166Z,71.94
2019-05-30T03:36:22.051Z,71.94
2019-05-30T03:37:18.853Z,71.83
2019-05-30T03:38:12.469Z,71.94
2019-05-30T03:39:10.816Z,71.94
2019-05-30T03:40:08.793Z,71.94
2019-05-30T03:41:11.310Z,72.04
2019-05-30T03:42:10.917Z,72.14
2019-05-30T03:43:11.114Z,72.04
2019-05-30T03:44:10.725Z,72.14
2019-05-30T03:45:11.370Z,72.04
2019-05-30T03:46:12.701Z,72.24
2019-05-30T03:47:11.026Z,72.24
2019-05-30T03:48:09.897Z,72.24
2019-05-30T03:49:10.626Z,72.14
2019-05-30T03:50:11.665Z,72.24
2019-05-30T03:51:10.796Z,72.34
2019-05-30T03:52:10.622Z,72.45
2019-05-30T03:53:09.912Z,72.65
2019-05-30T03:54:09.825Z,72.55
2019-05-30T03:55:10.033Z,72.45
2019-05-30T03:56:09.329Z,72.55
2019-05-30T03:57:09.629Z,72.41
2019-05-30T03:58:10.032Z,72.41
2019-05-30T03:59:10.165Z,72.31
2019-05-30T04:00:11.066Z,72.31
2019-05-30T04:01:10.027Z,72.31
2019-05-30T04:02:09.559Z,72.41
2019-05-30T04:03:09.777Z,72.62
2019-05-30T04:04:09.828Z,72.62
2019-05-30T04:05:09.270Z,72.62
2019-05-30T04:06:10.179Z,72.62
2019-05-30T04:07:09.105Z,72.41
2019-05-30T04:08:09.934Z,72.41
2019-05-30T04:09:09.792Z,72.52
2019-05-30T04:10:09.112Z,72.41
2019-05-30T04:11:10.398Z,72.62
2019-05-30T04:12:10.667Z,72.72
2019-05-30T04:13:09.898Z,72.72
2019-05-30T04:14:09.042Z,72.92
2019-05-30T04:15:10.042Z,72.92
2019-05-30T04:16:08.778Z,72.82
2019-05-30T04:17:10.565Z,73.03
2019-05-30T04:18:09.588Z,73.13
2019-05-30T04:19:09.830Z,73.03
2019-05-30T04:20:09.418Z,73.03
2019-05-30T04:21:09.001Z,73.03
2019-05-30T04:22:09.371Z,73.03
2019-05-30T04:23:09.178Z,73.10
2019-05-30T04:24:09.655Z,72.99
2019-05-30T04:25:08.615Z,72.89
2019-05-30T04:26:09.682Z,72.99
2019-05-30T04:27:09.855Z,73.19
2019-05-30T04:28:09.724Z,72.99
2019-05-30T04:29:09.788Z,73.10
2019-05-30T04:30:09.853Z,73.10
2019-05-30T04:31:08.257Z,73.19
2019-05-30T04:32:08.504Z,73.10
2019-05-30T04:33:22.471Z,73.10
2019-05-30T04:34:10.000Z,73.19
2019-05-30T04:35:08.220Z,72.99
2019-05-30T04:36:08.514Z,73.27
2019-05-30T04:37:08.352Z,73.06
2019-05-30T04:38:08.596Z,73.06
2019-05-30T04:39:08.848Z,72.96
2019-05-30T04:40:08.624Z,72.86
2019-05-30T04:41:08.913Z,72.96
2019-05-30T04:42:09.371Z,73.16
2019-05-30T04:43:09.126Z,73.16
2019-05-30T04:44:09.782Z,73.06
2019-05-30T04:45:09.689Z,73.06
2019-05-30T04:46:10.358Z,72.96
2019-05-30T04:47:09.884Z,73.16
2019-05-30T04:48:09.760Z,73.16
2019-05-30T04:49:09.937Z,73.27
2019-05-30T04:50:08.048Z,73.16
2019-05-30T04:51:08.037Z,73.27
2019-05-30T04:52:13.306Z,73.36
2019-05-30T04:53:10.169Z,73.33
2019-05-30T04:54:08.016Z,73.13
2019-05-30T04:55:07.998Z,73.13
2019-05-30T04:56:07.990Z,73.33
2019-05-30T04:57:07.979Z,73.43
2019-05-30T04:58:08.510Z,73.13
2019-05-30T04:59:08.228Z,73.33
2019-05-30T05:00:07.949Z,73.33
2019-05-30T05:01:07.937Z,73.13
2019-05-30T05:02:07.921Z,73.13
2019-05-30T05:03:07.906Z,73.33
2019-05-30T05:04:07.947Z,73.23
2019-05-30T05:05:07.887Z,73.30
2019-05-30T05:06:08.179Z,73.30
2019-05-30T05:07:07.861Z,73.30
2019-05-30T05:08:07.855Z,73.30
2019-05-30T05:09:07.836Z,73.19
2019-05-30T05:10:07.868Z,73.30
2019-05-30T05:11:12.267Z,73.30
2019-05-30T05:12:08.810Z,73.10
2019-05-30T05:13:07.796Z,73.50
2019-05-30T05:14:07.794Z,73.30
2019-05-30T05:15:07.776Z,73.19
2019-05-30T05:16:24.475Z,73.06
2019-05-30T05:17:08.766Z,73.06
2019-05-30T05:18:07.746Z,72.65
2019-05-30T05:19:08.026Z,72.65
2019-05-30T05:20:07.742Z,72.55
2019-05-30T05:21:07.715Z,72.55
2019-05-30T05:22:07.763Z,72.52
2019-05-30T05:23:07.700Z,72.52
2019-05-30T05:24:07.685Z,72.31
2019-05-30T05:25:07.675Z,72.62
2019-05-30T05:26:07.951Z,72.52
2019-05-30T05:27:09.826Z,72.52
2019-05-30T05:28:07.724Z,72.31
2019-05-30T05:29:07.625Z,72.31
2019-05-30T05:30:07.616Z,72.52
2019-05-30T05:31:07.635Z,72.38
2019-05-30T05:32:07.874Z,72.08
2019-05-30T05:33:07.588Z,71.77
2019-05-30T05:34:07.629Z,71.77
2019-05-30T05:35:07.585Z,71.84
2019-05-30T05:36:07.558Z,71.64
2019-05-30T05:37:07.541Z,71.43
2019-05-30T05:38:07.532Z,71.43
2019-05-30T05:39:07.804Z,71.33
2019-05-30T05:40:08.118Z,71.33
2019-05-30T05:41:07.500Z,71.53
2019-05-30T05:42:07.491Z,71.64
2019-05-30T05:43:07.484Z,71.40
2019-05-30T05:44:07.464Z,71.19
2019-05-30T05:45:07.453Z,71.09
2019-05-30T05:46:07.484Z,70.99
2019-05-30T05:47:07.433Z,70.99
2019-05-30T05:48:07.426Z,71.19
2019-05-30T05:49:07.414Z,71.30
2019-05-30T05:50:07.403Z,71.16
2019-05-30T05:51:07.673Z,71.09
2019-05-30T05:52:07.621Z,71.19
2019-05-30T05:53:07.374Z,71.16
2019-05-30T05:54:07.365Z,71.16
2019-05-30T05:55:07.354Z,71.06
2019-05-30T05:56:07.364Z,70.86
2019-05-30T05:57:07.659Z,70.92
2019-05-30T05:58:07.363Z,70.52
2019-05-30T05:59:07.313Z,70.52
2019-05-30T06:00:07.301Z,70.82
2019-05-30T06:01:08.149Z,70.31
2019-05-30T06:02:07.293Z,70.52
2019-05-30T06:03:08.151Z,70.62
2019-05-30T06:04:13.107Z,70.72
2019-05-30T06:05:08.252Z,70.82
2019-05-30T06:06:08.902Z,70.62
2019-05-30T06:07:07.229Z,70.62
2019-05-30T06:08:07.222Z,70.48
2019-05-30T06:09:07.202Z,70.18
2019-05-30T06:10:07.299Z,69.84
2019-05-30T06:11:07.213Z,69.64
2019-05-30T06:12:07.209Z,69.23
2019-05-30T06:13:07.180Z,69.23
2019-05-30T06:14:07.152Z,69.13
2019-05-30T06:15:07.191Z,69.64
2019-05-30T06:16:07.522Z,69.64
2019-05-30T06:17:07.119Z,69.84
2019-05-30T06:18:07.102Z,69.30
2019-05-30T06:19:08.462Z,69.51
2019-05-30T06:20:07.102Z,69.30
2019-05-30T06:21:08.195Z,69.30
2019-05-30T06:22:07.112Z,69.40
2019-05-30T06:23:07.052Z,69.81
2019-05-30T06:24:07.062Z,70.04
2019-05-30T06:25:07.033Z,70.11
2019-05-30T06:26:07.041Z,69.81
2019-05-30T06:27:07.084Z,69.71
2019-05-30T06:28:07.350Z,69.37
2019-05-30T06:29:07.552Z,69.03
2019-05-30T06:30:06.972Z,68.96
2019-05-30T06:31:06.961Z,69.37
2019-05-30T06:32:06.952Z,69.68
2019-05-30T06:33:06.941Z,69.57
2019-05-30T06:34:06.982Z,69.47
2019-05-30T06:35:07.201Z,69.47
2019-05-30T06:36:06.920Z,69.37
2019-05-30T06:37:06.928Z,69.17
2019-05-30T06:38:06.887Z,69.03
2019-05-30T06:39:06.871Z,68.73
2019-05-30T06:40:06.903Z,66.70
2019-05-30T06:41:06.851Z,65.96
2019-05-30T06:42:07.121Z,64.11
2019-05-30T06:43:06.831Z,62.86
2019-05-30T06:44:06.836Z,62.33
2019-05-30T06:45:06.809Z,63.84
2019-05-30T06:46:07.543Z,64.04
2019-05-30T06:47:07.380Z,62.30
2019-05-30T06:48:06.789Z,61.69
2019-05-30T06:49:06.781Z,61.49
2019-05-30T06:50:06.760Z,61.19
2019-05-30T06:51:06.753Z,60.98
2019-05-30T06:52:06.775Z,60.98
2019-05-30T06:53:06.723Z,60.88
2019-05-30T06:54:06.710Z,60.88
2019-05-30T06:55:06.983Z,60.68
2019-05-30T06:56:06.691Z,60.25
2019-05-30T06:57:06.701Z,60.25
2019-05-30T06:58:06.700Z,60.14
2019-05-30T06:59:06.676Z,60.12
2019-05-30T07:00:06.650Z,59.91
2019-05-30T07:01:06.681Z,60.22
2019-05-30T07:02:06.627Z,60.45
2019-05-30T07:03:06.641Z,60.45
2019-05-30T07:04:06.977Z,60.35
2019-05-30T07:05:07.112Z,60.42
2019-05-30T07:06:07.117Z,60.22
2019-05-30T07:07:06.811Z,60.52
2019-05-30T07:08:06.848Z,60.02
2019-05-30T07:09:06.570Z,60.22
2019-05-30T07:10:06.600Z,60.22
2019-05-30T07:11:06.531Z,59.89
2019-05-30T07:12:06.539Z,59.89
2019-05-30T07:13:06.509Z,59.89
2019-05-30T07:14:06.810Z,59.58
2019-05-30T07:15:06.508Z,60.09
2019-05-30T07:16:06.511Z,59.81
2019-05-30T07:17:06.480Z,60.22
2019-05-30T07:18:06.492Z,60.62
2019-05-30T07:19:06.446Z,60.62
2019-05-30T07:20:06.439Z,60.62
2019-05-30T07:21:06.439Z,60.72
2019-05-30T07:22:06.910Z,60.82
2019-05-30T07:23:06.400Z,61.13
2019-05-30T07:24:07.119Z,61.03
2019-05-30T07:25:06.391Z,60.62
2019-05-30T07:26:07.547Z,60.52
2019-05-30T07:27:06.359Z,60.42
2019-05-30T07:28:06.391Z,60.22
2019-05-30T07:29:07.129Z,60.49
2019-05-30T07:30:06.342Z,60.52
2019-05-30T07:31:06.319Z,60.49
2019-05-30T07:32:06.330Z,60.69
2019-05-30T07:33:06.299Z,60.60
2019-05-30T07:34:06.326Z,60.29
2019-05-30T07:35:07.526Z,60.39
2019-05-30T07:36:06.259Z,60.72
2019-05-30T07:37:07.198Z,60.82
2019-05-30T07:38:07.610Z,60.69
2019-05-30T07:39:06.247Z,60.69
2019-05-30T07:40:06.261Z,60.60
2019-05-30T07:41:06.218Z,60.49
2019-05-30T07:42:07.215Z,60.77
2019-05-30T07:43:06.209Z,60.36
2019-05-30T07:44:06.181Z,59.25
2019-05-30T07:45:06.179Z,59.56
2019-05-30T07:46:06.213Z,59.35
2019-05-30T07:47:06.149Z,59.35
2019-05-30T07:48:06.849Z,58.75
2019-05-30T07:49:06.121Z,58.65
2019-05-30T07:50:07.398Z,58.95
2019-05-30T07:51:06.106Z,58.95
2019-05-30T07:52:06.173Z,59.15
2019-05-30T07:53:06.078Z,58.95
2019-05-30T07:54:06.079Z,59.02
2019-05-30T07:55:06.061Z,59.22
2019-05-30T07:56:06.341Z,58.92
2019-05-30T07:57:06.041Z,59.22
2019-05-30T07:58:06.102Z,58.82
2019-05-30T07:59:06.019Z,58.95
2019-05-30T08:00:06.010Z,59.25
2019-05-30T08:01:06.027Z,59.05
2019-05-30T08:02:05.989Z,59.15
2019-05-30T08:03:05.979Z,59.56
2019-05-30T08:04:06.607Z,59.56
2019-05-30T08:05:20.751Z,60.06
2019-05-30T08:06:06.954Z,59.66
2019-05-30T08:07:05.948Z,60.16
2019-05-30T08:08:06.224Z,59.96
2019-05-30T08:09:05.908Z,59.99
2019-05-30T08:10:05.957Z,59.38
2019-05-30T08:11:09.303Z,59.58
2019-05-30T08:12:05.892Z,59.45
2019-05-30T08:13:06.560Z,59.58
2019-05-30T08:14:06.553Z,59.48
2019-05-30T08:15:06.250Z,59.56
2019-05-30T08:16:05.887Z,59.99
2019-05-30T08:17:05.827Z,60.19
2019-05-30T08:18:05.850Z,59.89
2019-05-30T08:19:05.814Z,59.28
2019-05-30T08:20:05.802Z,59.18
2019-05-30T08:21:05.787Z,59.18
2019-05-30T08:22:06.089Z,59.28
2019-05-30T08:23:09.498Z,59.18
2019-05-30T08:24:06.031Z,59.05
2019-05-30T08:25:05.750Z,58.95
2019-05-30T08:26:05.742Z,59.05
2019-05-30T08:27:05.718Z,59.86
2019-05-30T08:28:05.755Z,59.89
2019-05-30T08:29:05.978Z,60.49
2019-05-30T08:30:05.699Z,60.39
2019-05-30T08:31:05.726Z,60.19
2019-05-30T08:32:05.673Z,60.60
2019-05-30T08:33:05.648Z,61.20
2019-05-30T08:34:06.258Z,61.00
2019-05-30T08:35:05.630Z,61.33
2019-05-30T08:36:06.108Z,61.53
2019-05-30T08:37:05.607Z,61.63
2019-05-30T08:38:05.608Z,61.53
2019-05-30T08:39:05.588Z,61.73
2019-05-30T08:40:05.647Z,61.73
2019-05-30T08:41:05.577Z,61.83
2019-05-30T08:42:05.566Z,61.53
2019-05-30T08:43:05.565Z,61.43
2019-05-30T08:44:05.546Z,61.73
2019-05-30T08:45:05.528Z,61.73
2019-05-30T08:46:05.577Z,61.83
2019-05-30T08:47:05.533Z,61.83
2019-05-30T08:48:05.499Z,61.94
2019-05-30T08:49:05.489Z,62.04
2019-05-30T08:50:05.481Z,61.94
2019-05-30T08:51:05.466Z,62.34
2019-05-30T08:52:05.500Z,62.57
2019-05-30T08:53:05.450Z,62.54
2019-05-30T08:54:05.465Z,62.74
2019-05-30T08:55:05.697Z,62.54
2019-05-30T08:56:05.408Z,62.34
2019-05-30T08:57:06.147Z,62.74
2019-05-30T08:58:05.436Z,62.67
2019-05-30T08:59:05.384Z,62.57
2019-05-30T09:00:05.459Z,62.77
2019-05-30T09:01:05.355Z,62.98
2019-05-30T09:02:05.359Z,62.67
2019-05-30T09:03:05.352Z,63.01
2019-05-30T09:04:05.368Z,62.87
2019-05-30T09:05:07.034Z,62.98
2019-05-30T09:06:05.317Z,63.18
2019-05-30T09:07:05.315Z,63.08
2019-05-30T09:08:05.285Z,63.28
2019-05-30T09:09:05.888Z,63.68
2019-05-30T09:10:05.319Z,63.48
2019-05-30T09:11:05.263Z,63.48
2019-05-30T09:12:05.958Z,63.58
2019-05-30T09:13:05.337Z,63.58
2019-05-30T09:14:05.216Z,64.09
2019-05-30T09:15:05.218Z,63.78
2019-05-30T09:16:05.297Z,64.39
2019-05-30T09:17:05.187Z,64.29
2019-05-30T09:18:05.197Z,64.09
2019-05-30T09:19:05.658Z,64.29
2019-05-30T09:20:06.660Z,64.19
2019-05-30T09:21:05.168Z,64.49
2019-05-30T09:22:05.178Z,65.30
2019-05-30T09:23:05.117Z,65.13
2019-05-30T09:24:05.118Z,64.59
2019-05-30T09:25:05.487Z,64.59
2019-05-30T09:26:05.105Z,64.49
2019-05-30T09:27:05.086Z,64.59
2019-05-30T09:28:05.600Z,64.39
2019-05-30T09:29:06.920Z,64.09
2019-05-30T09:30:05.813Z,64.09
2019-05-30T09:31:05.796Z,63.99
2019-05-30T09:32:05.027Z,64.09
2019-05-30T09:33:05.029Z,64.29
2019-05-30T09:34:05.066Z,64.29
2019-05-30T09:35:05.804Z,64.29
2019-05-30T09:36:13.117Z,63.55
2019-05-30T09:37:05.966Z,62.71
2019-05-30T09:38:05.796Z,62.71
2019-05-30T09:39:04.973Z,61.98
2019-05-30T09:40:04.986Z,62.08
2019-05-30T09:41:04.926Z,62.18
2019-05-30T09:42:05.085Z,62.08
2019-05-30T09:43:04.929Z,61.88
2019-05-30T09:44:06.866Z,61.65
2019-05-30T09:45:04.926Z,61.65
2019-05-30T09:46:04.926Z,61.41
2019-05-30T09:47:05.011Z,61.11
2019-05-30T09:48:05.345Z,61.44
2019-05-30T09:49:04.848Z,61.21
2019-05-30T09:50:04.834Z,61.44
2019-05-30T09:51:07.147Z,61.14
2019-05-30T09:52:04.865Z,60.91
2019-05-30T09:53:04.796Z,60.28
2019-05-30T09:54:04.786Z,59.75
2019-05-30T09:55:04.783Z,59.44
2019-05-30T09:56:04.771Z,59.55
2019-05-30T09:57:04.756Z,59.31
2019-05-30T09:58:05.073Z,59.24
2019-05-30T09:59:04.736Z,59.84
2019-05-30T10:00:04.756Z,59.95
2019-05-30T10:01:04.717Z,59.44
2019-05-30T10:02:04.725Z,59.84
2019-05-30T10:03:04.706Z,59.84
2019-05-30T10:04:06.420Z,59.72
2019-05-30T10:05:05.148Z,60.15
2019-05-30T10:06:04.666Z,59.95
2019-05-30T10:07:04.646Z,59.84
2019-05-30T10:08:05.169Z,59.44
2019-05-30T10:09:04.633Z,59.84
2019-05-30T10:10:04.664Z,59.84
2019-05-30T10:11:04.610Z,59.75
2019-05-30T10:12:05.046Z,59.62
2019-05-30T10:13:04.596Z,59.42
2019-05-30T10:14:04.607Z,58.88
2019-05-30T10:15:04.584Z,58.68
2019-05-30T10:16:05.478Z,58.25
2019-05-30T10:17:04.712Z,57.65
2019-05-30T10:18:04.576Z,57.65
2019-05-30T10:19:04.537Z,57.55
2019-05-30T10:20:04.521Z,57.57
2019-05-30T10:21:04.512Z,57.98
2019-05-30T10:22:04.661Z,58.28
2019-05-30T10:23:05.023Z,58.28
2019-05-30T10:24:04.603Z,58.48
2019-05-30T10:25:04.948Z,58.78
2019-05-30T10:26:04.497Z,58.98
2019-05-30T10:27:04.434Z,59.52
2019-05-30T10:28:04.977Z,59.22
2019-05-30T10:29:04.418Z,59.22
2019-05-30T10:30:04.998Z,58.98
2019-05-30T10:31:04.966Z,58.61
2019-05-30T10:32:04.377Z,58.68
2019-05-30T10:33:04.387Z,58.68
2019-05-30T10:34:04.410Z,58.45
2019-05-30T10:35:04.402Z,58.28
2019-05-30T10:36:05.477Z,58.48
2019-05-30T10:37:05.807Z,58.48
2019-05-30T10:38:05.818Z,58.65
2019-05-30T10:39:04.307Z,58.48
2019-05-30T10:40:04.348Z,58.48
2019-05-30T10:41:05.017Z,58.91
2019-05-30T10:42:04.277Z,59.11
2019-05-30T10:43:06.290Z,59.08
2019-05-30T10:44:04.285Z,59.11
2019-05-30T10:45:04.254Z,59.31
2019-05-30T10:46:04.437Z,59.62
2019-05-30T10:47:04.226Z,59.82
2019-05-30T10:48:04.766Z,59.92
2019-05-30T10:49:04.235Z,59.72
2019-05-30T10:50:04.207Z,59.48
2019-05-30T10:51:04.185Z,59.39
2019-05-30T10:52:04.307Z,59.19
2019-05-30T10:53:04.180Z,59.36
2019-05-30T10:54:04.152Z,59.19
2019-05-30T10:55:04.137Z,59.19
2019-05-30T10:56:04.128Z,59.39
2019-05-30T10:57:04.139Z,59.69
2019-05-30T10:58:04.176Z,59.48
2019-05-30T10:59:04.307Z,59.69
2019-05-30T11:00:09.524Z,59.59
2019-05-30T11:01:05.076Z,59.66
2019-05-30T11:02:05.420Z,59.26
2019-05-30T11:03:05.286Z,58.86
2019-05-30T11:04:05.193Z,58.62
2019-05-30T11:05:04.071Z,58.73
2019-05-30T11:06:04.081Z,58.73
2019-05-30T11:07:11.008Z,58.42
2019-05-30T11:08:06.266Z,58.29
2019-05-30T11:09:04.208Z,58.50
2019-05-30T11:10:05.177Z,58.22
2019-05-30T11:11:04.676Z,58.53
2019-05-30T11:12:04.287Z,58.75
2019-05-30T11:13:06.074Z,58.83
2019-05-30T11:14:03.935Z,58.93
2019-05-30T11:15:04.573Z,59.03
2019-05-30T11:16:04.439Z,58.70
2019-05-30T11:17:03.906Z,58.62
2019-05-30T11:18:03.936Z,58.62
2019-05-30T11:19:07.352Z,58.73
2019-05-30T11:20:04.168Z,58.42
2019-05-30T11:21:03.869Z,58.60
2019-05-30T11:22:03.916Z,58.83
2019-05-30T11:23:03.871Z,59.23
2019-05-30T11:24:04.417Z,59.26
2019-05-30T11:25:03.818Z,59.66
2019-05-30T11:26:03.974Z,59.46
2019-05-30T11:27:03.838Z,59.56
2019-05-30T11:28:03.853Z,59.56
2019-05-30T11:29:04.646Z,59.96
2019-05-30T11:30:04.425Z,59.66
2019-05-30T11:31:04.737Z,59.96
2019-05-30T11:32:03.747Z,60.27
2019-05-30T11:33:04.117Z,60.47
2019-05-30T11:34:03.825Z,60.67
2019-05-30T11:35:03.759Z,61.10
2019-05-30T11:36:03.746Z,61.07
2019-05-30T11:37:18.288Z,61.27
2019-05-30T11:38:04.769Z,61.47
2019-05-30T11:39:03.676Z,61.47
2019-05-30T11:40:04.209Z,61.47
2019-05-30T11:41:03.668Z,61.57
2019-05-30T11:42:03.645Z,61.87
2019-05-30T11:43:03.638Z,62.01
2019-05-30T11:44:04.288Z,62.21
2019-05-30T11:45:03.619Z,62.21
2019-05-30T11:46:04.527Z,62.71
2019-05-30T11:47:03.881Z,62.41
2019-05-30T11:48:03.614Z,62.51
2019-05-30T11:49:03.589Z,62.71
2019-05-30T11:50:03.556Z,62.61
2019-05-30T11:51:03.541Z,62.61
2019-05-30T11:52:03.597Z,62.71
2019-05-30T11:53:03.531Z,62.71
2019-05-30T11:54:03.798Z,62.91
2019-05-30T11:55:03.507Z,63.11
2019-05-30T11:56:03.493Z,63.24
2019-05-30T11:57:03.482Z,63.34
2019-05-30T11:58:03.509Z,63.75
2019-05-30T11:59:03.459Z,63.62
2019-05-30T12:00:03.459Z,63.62
2019-05-30T12:01:03.463Z,63.82
2019-05-30T12:02:03.453Z,63.82
2019-05-30T12:03:03.427Z,63.82
2019-05-30T12:04:03.494Z,64.22
2019-05-30T12:05:03.397Z,64.22
2019-05-30T12:06:03.716Z,64.32
2019-05-30T12:07:03.376Z,64.32
2019-05-30T12:08:04.196Z,64.72
2019-05-30T12:09:04.236Z,64.52
2019-05-30T12:10:24.450Z,64.42
2019-05-30T12:11:03.333Z,64.42
2019-05-30T12:12:05.495Z,64.62
2019-05-30T12:13:03.320Z,64.62
2019-05-30T12:14:03.338Z,64.52
2019-05-30T12:15:03.333Z,64.52
2019-05-30T12:16:03.341Z,64.49
2019-05-30T12:17:03.744Z,64.49
2019-05-30T12:18:04.396Z,64.69
2019-05-30T12:19:03.727Z,64.59
2019-05-30T12:20:03.437Z,64.59
2019-05-30T12:21:03.401Z,64.49
2019-05-30T12:22:05.646Z,64.59
2019-05-30T12:23:03.778Z,64.49
2019-05-30T12:24:03.637Z,64.69
2019-05-30T12:25:03.780Z,65.02
2019-05-30T12:26:03.837Z,65.12
2019-05-30T12:27:03.177Z,65.33
2019-05-30T12:28:04.723Z,65.42
2019-05-30T12:29:03.136Z,65.53
2019-05-30T12:30:03.127Z,65.62
2019-05-30T12:31:06.638Z,65.56
2019-05-30T12:32:03.955Z,66.06
2019-05-30T12:33:03.103Z,66.16
2019-05-30T12:34:03.169Z,66.36
2019-05-30T12:35:03.193Z,66.36
2019-05-30T12:36:03.142Z,66.47
2019-05-30T12:37:03.770Z,66.56
2019-05-30T12:38:06.440Z,66.67
2019-05-30T12:39:03.433Z,66.67
2019-05-30T12:40:03.268Z,66.97
2019-05-30T12:41:03.059Z,66.77
2019-05-30T12:42:03.438Z,66.67
2019-05-30T12:43:04.794Z,66.67
2019-05-30T12:44:03.373Z,67.07
2019-05-30T12:45:07.155Z,67.27
2019-05-30T12:46:03.318Z,67.37
2019-05-30T12:47:03.489Z,67.27
2019-05-30T12:48:04.319Z,67.27
2019-05-30T12:49:03.699Z,67.07
2019-05-30T12:50:03.547Z,67.17
2019-05-30T12:51:03.692Z,67.07
2019-05-30T12:52:03.661Z,67.27
2019-05-30T12:53:02.915Z,67.30
2019-05-30T12:54:02.897Z,67.40